sensor_id;sensor_type;location;lat;lon;timestamp;temperature;humidity
5061;DHT22;2549;52.128;21.068;2022-11-06T00:01:33;13.10;99.90
5061;DHT22;2549;52.128;21.068;2022-11-06T00:04:00;13.10;99.90
5061;DHT22;2549;52.128;21.068;2022-11-06T00:06:27;13.10;99.90
5061;DHT22;2549;52.128;21.068;2022-11-06T00:09:14;13.00;99.90
5061;DHT22;2549;52.128;21.068;2022-11-06T00:11:41;13.00;99.90
5061;DHT22;2549;52.128;21.068;2022-11-06T00:14:09;13.10;99.90
5061;DHT22;2549;52.128;21.068;2022-11-06T00:16:37;13.00;99.90
5061;DHT22;2549;52.128;21.068;2022-11-06T00:19:05;13.00;99.90
5061;DHT22;2549;52.128;21.068;2022-11-06T00:21:33;13.00;99.90
5061;DHT22;2549;52.128;21.068;2022-11-06T00:24:02;13.00;99.90
5061;DHT22;2549;52.128;21.068;2022-11-06T00:26:30;13.00;99.90
5061;DHT22;2549;52.128;21.068;2022-11-06T00:28:58;13.00;99.90
5061;DHT22;2549;52.128;21.068;2022-11-06T00:31:27;13.00;99.90
5061;DHT22;2549;52.128;21.068;2022-11-06T00:33:56;13.00;99.90
5061;DHT22;2549;52.128;21.068;2022-11-06T00:36:24;13.10;99.90
5061;DHT22;2549;52.128;21.068;2022-11-06T00:38:53;13.00;99.90
5061;DHT22;2549;52.128;21.068;2022-11-06T00:41:21;13.00;99.90
5061;DHT22;2549;52.128;21.068;2022-11-06T00:43:54;13.00;99.90
5061;DHT22;2549;52.128;21.068;2022-11-06T00:46:22;13.00;99.90
5061;DHT22;2549;52.128;21.068;2022-11-06T00:48:50;13.00;99.90
5061;DHT22;2549;52.128;21.068;2022-11-06T00:51:20;12.90;99.90
5061;DHT22;2549;52.128;21.068;2022-11-06T00:53:51;12.90;99.90
5061;DHT22;2549;52.128;21.068;2022-11-06T00:56:19;13.00;99.90
5061;DHT22;2549;52.128;21.068;2022-11-06T00:58:46;13.00;99.90
5061;DHT22;2549;52.128;21.068;2022-11-06T01:03:47;12.90;99.90
5061;DHT22;2549;52.128;21.068;2022-11-06T01:06:21;12.90;99.90
5061;DHT22;2549;52.128;21.068;2022-11-06T01:08:49;12.90;99.90
5061;DHT22;2549;52.128;21.068;2022-11-06T01:11:19;12.90;99.90
5061;DHT22;2549;52.128;21.068;2022-11-06T01:13:49;12.90;99.90
5061;DHT22;2549;52.128;21.068;2022-11-06T01:16:17;12.90;99.90
5061;DHT22;2549;52.128;21.068;2022-11-06T01:18:44;12.90;99.90
5061;DHT22;2549;52.128;21.068;2022-11-06T01:21:21;12.90;99.90
5061;DHT22;2549;52.128;21.068;2022-11-06T01:23:53;12.80;99.90
5061;DHT22;2549;52.128;21.068;2022-11-06T01:26:21;12.80;99.90
5061;DHT22;2549;52.128;21.068;2022-11-06T01:29:05;12.80;99.90
5061;DHT22;2549;52.128;21.068;2022-11-06T01:31:33;12.80;99.90
5061;DHT22;2549;52.128;21.068;2022-11-06T01:34:01;12.80;99.90
5061;DHT22;2549;52.128;21.068;2022-11-06T01:36:28;12.80;99.90
5061;DHT22;2549;52.128;21.068;2022-11-06T01:38:59;12.80;99.90
5061;DHT22;2549;52.128;21.068;2022-11-06T01:41:35;12.80;99.90
5061;DHT22;2549;52.128;21.068;2022-11-06T01:44:05;12.80;99.90
5061;DHT22;2549;52.128;21.068;2022-11-06T01:46:35;12.80;99.90
5061;DHT22;2549;52.128;21.068;2022-11-06T01:49:07;12.80;99.90
5061;DHT22;2549;52.128;21.068;2022-11-06T01:51:44;12.80;99.90
5061;DHT22;2549;52.128;21.068;2022-11-06T01:54:13;12.80;99.90
5061;DHT22;2549;52.128;21.068;2022-11-06T01:56:42;12.80;99.90
5061;DHT22;2549;52.128;21.068;2022-11-06T01:59:14;12.70;99.90
5061;DHT22;2549;52.128;21.068;2022-11-06T02:01:43;12.80;99.90
5061;DHT22;2549;52.128;21.068;2022-11-06T02:04:26;12.70;99.90
5061;DHT22;2549;52.128;21.068;2022-11-06T02:06:55;12.70;99.90
5061;DHT22;2549;52.128;21.068;2022-11-06T02:09:23;12.70;99.90
5061;DHT22;2549;52.128;21.068;2022-11-06T02:17:25;12.60;99.90
5061;DHT22;2549;52.128;21.068;2022-11-06T02:28:53;12.50;99.90
5061;DHT22;2549;52.128;21.068;2022-11-06T02:31:27;12.50;99.90
5061;DHT22;2549;52.128;21.068;2022-11-06T02:34:04;12.50;99.90
5061;DHT22;2549;52.128;21.068;2022-11-06T02:36:36;12.40;99.90
5061;DHT22;2549;52.128;21.068;2022-11-06T02:39:08;12.40;99.90
5061;DHT22;2549;52.128;21.068;2022-11-06T02:41:39;12.40;99.90
5061;DHT22;2549;52.128;21.068;2022-11-06T02:44:14;12.40;99.90
5061;DHT22;2549;52.128;21.068;2022-11-06T02:46:47;12.40;99.90
5061;DHT22;2549;52.128;21.068;2022-11-06T02:52:00;12.30;99.90
5061;DHT22;2549;52.128;21.068;2022-11-06T02:54:33;12.30;99.90
5061;DHT22;2549;52.128;21.068;2022-11-06T02:57:05;12.30;99.90
5061;DHT22;2549;52.128;21.068;2022-11-06T03:02:11;12.20;99.90
5061;DHT22;2549;52.128;21.068;2022-11-06T03:05:04;12.20;99.90
5061;DHT22;2549;52.128;21.068;2022-11-06T03:07:44;12.20;99.90
5061;DHT22;2549;52.128;21.068;2022-11-06T03:10:13;12.20;99.90
5061;DHT22;2549;52.128;21.068;2022-11-06T03:12:53;12.20;99.90
5061;DHT22;2549;52.128;21.068;2022-11-06T03:15:33;12.20;99.90
5061;DHT22;2549;52.128;21.068;2022-11-06T03:18:12;12.10;99.90
5061;DHT22;2549;52.128;21.068;2022-11-06T03:21:02;12.10;99.90
5061;DHT22;2549;52.128;21.068;2022-11-06T03:24:06;12.10;99.90
5061;DHT22;2549;52.128;21.068;2022-11-06T03:26:46;12.10;99.90
5061;DHT22;2549;52.128;21.068;2022-11-06T03:29:45;12.10;99.90
5061;DHT22;2549;52.128;21.068;2022-11-06T03:34:53;12.10;99.90
5061;DHT22;2549;52.128;21.068;2022-11-06T03:37:26;12.10;99.90
5061;DHT22;2549;52.128;21.068;2022-11-06T03:39:55;12.10;99.90
5061;DHT22;2549;52.128;21.068;2022-11-06T03:42:26;12.10;99.90
5061;DHT22;2549;52.128;21.068;2022-11-06T03:45:00;12.10;99.90
5061;DHT22;2549;52.128;21.068;2022-11-06T03:47:32;12.10;99.90
5061;DHT22;2549;52.128;21.068;2022-11-06T03:50:12;12.00;99.90
5061;DHT22;2549;52.128;21.068;2022-11-06T03:52:43;12.00;99.90
5061;DHT22;2549;52.128;21.068;2022-11-06T03:55:23;12.00;99.90
5061;DHT22;2549;52.128;21.068;2022-11-06T04:00:22;12.00;99.90
5061;DHT22;2549;52.128;21.068;2022-11-06T04:03:00;12.00;99.90
5061;DHT22;2549;52.128;21.068;2022-11-06T04:05:36;12.00;99.90
5061;DHT22;2549;52.128;21.068;2022-11-06T04:08:05;12.00;99.90
5061;DHT22;2549;52.128;21.068;2022-11-06T04:10:55;12.00;99.90
5061;DHT22;2549;52.128;21.068;2022-11-06T04:13:42;11.90;99.90
5061;DHT22;2549;52.128;21.068;2022-11-06T04:16:39;11.90;99.90
5061;DHT22;2549;52.128;21.068;2022-11-06T04:19:17;11.90;99.90
5061;DHT22;2549;52.128;21.068;2022-11-06T04:31:11;11.80;99.90
5061;DHT22;2549;52.128;21.068;2022-11-06T04:36:36;11.80;99.90
5061;DHT22;2549;52.128;21.068;2022-11-06T04:42:00;11.80;99.90
5061;DHT22;2549;52.128;21.068;2022-11-06T04:44:37;11.80;99.90
5061;DHT22;2549;52.128;21.068;2022-11-06T04:47:08;11.80;99.90
5061;DHT22;2549;52.128;21.068;2022-11-06T04:49:38;11.70;99.90
5061;DHT22;2549;52.128;21.068;2022-11-06T04:52:10;11.70;99.90
5061;DHT22;2549;52.128;21.068;2022-11-06T04:54:38;11.70;99.90
5061;DHT22;2549;52.128;21.068;2022-11-06T04:57:05;11.70;99.90
5061;DHT22;2549;52.128;21.068;2022-11-06T04:59:34;11.70;99.90
5061;DHT22;2549;52.128;21.068;2022-11-06T05:02:03;11.70;99.90
5061;DHT22;2549;52.128;21.068;2022-11-06T05:04:31;11.70;99.90
5061;DHT22;2549;52.128;21.068;2022-11-06T05:06:58;11.60;99.90
5061;DHT22;2549;52.128;21.068;2022-11-06T05:09:25;11.60;99.90
5061;DHT22;2549;52.128;21.068;2022-11-06T05:11:52;11.60;99.90
5061;DHT22;2549;52.128;21.068;2022-11-06T05:14:19;11.60;99.90
5061;DHT22;2549;52.128;21.068;2022-11-06T05:16:46;11.60;99.90
5061;DHT22;2549;52.128;21.068;2022-11-06T05:19:12;11.50;99.90
5061;DHT22;2549;52.128;21.068;2022-11-06T05:21:39;11.50;99.90
5061;DHT22;2549;52.128;21.068;2022-11-06T05:24:25;11.50;99.90
5061;DHT22;2549;52.128;21.068;2022-11-06T05:26:52;11.50;99.90
5061;DHT22;2549;52.128;21.068;2022-11-06T05:29:25;11.50;99.90
5061;DHT22;2549;52.128;21.068;2022-11-06T05:31:52;11.50;99.90
5061;DHT22;2549;52.128;21.068;2022-11-06T05:34:20;11.50;99.90
5061;DHT22;2549;52.128;21.068;2022-11-06T05:36:47;11.50;99.90
5061;DHT22;2549;52.128;21.068;2022-11-06T05:39:13;11.60;99.90
5061;DHT22;2549;52.128;21.068;2022-11-06T05:41:40;11.50;99.90
5061;DHT22;2549;52.128;21.068;2022-11-06T05:44:07;11.50;99.90
5061;DHT22;2549;52.128;21.068;2022-11-06T05:46:34;11.50;99.90
5061;DHT22;2549;52.128;21.068;2022-11-06T05:49:14;11.50;99.90
5061;DHT22;2549;52.128;21.068;2022-11-06T05:51:40;11.60;99.90
5061;DHT22;2549;52.128;21.068;2022-11-06T05:54:07;11.60;99.90
5061;DHT22;2549;52.128;21.068;2022-11-06T05:56:34;11.60;99.90
5061;DHT22;2549;52.128;21.068;2022-11-06T05:59:01;11.50;99.90
5061;DHT22;2549;52.128;21.068;2022-11-06T06:01:28;11.50;99.90
5061;DHT22;2549;52.128;21.068;2022-11-06T06:03:55;11.50;99.90
5061;DHT22;2549;52.128;21.068;2022-11-06T06:06:22;11.50;99.90
5061;DHT22;2549;52.128;21.068;2022-11-06T06:08:49;11.50;99.90
5061;DHT22;2549;52.128;21.068;2022-11-06T06:11:16;11.40;99.90
5061;DHT22;2549;52.128;21.068;2022-11-06T06:13:42;11.40;99.90
5061;DHT22;2549;52.128;21.068;2022-11-06T06:16:09;11.40;99.90
5061;DHT22;2549;52.128;21.068;2022-11-06T06:18:36;11.40;99.90
5061;DHT22;2549;52.128;21.068;2022-11-06T06:21:03;11.40;99.90
5061;DHT22;2549;52.128;21.068;2022-11-06T06:23:31;11.40;99.90
5061;DHT22;2549;52.128;21.068;2022-11-06T06:25:58;11.40;99.90
5061;DHT22;2549;52.128;21.068;2022-11-06T06:28:25;11.40;99.90
5061;DHT22;2549;52.128;21.068;2022-11-06T06:30:52;11.40;99.90
5061;DHT22;2549;52.128;21.068;2022-11-06T06:33:26;11.40;99.90
5061;DHT22;2549;52.128;21.068;2022-11-06T06:35:53;11.40;99.90
5061;DHT22;2549;52.128;21.068;2022-11-06T06:38:20;11.40;99.90
5061;DHT22;2549;52.128;21.068;2022-11-06T06:40:47;11.40;99.90
5061;DHT22;2549;52.128;21.068;2022-11-06T06:43:13;11.40;99.90
5061;DHT22;2549;52.128;21.068;2022-11-06T06:45:40;11.40;99.90
5061;DHT22;2549;52.128;21.068;2022-11-06T06:48:07;11.30;99.90
5061;DHT22;2549;52.128;21.068;2022-11-06T06:50:34;11.40;99.90
5061;DHT22;2549;52.128;21.068;2022-11-06T06:53:01;11.40;99.90
5061;DHT22;2549;52.128;21.068;2022-11-06T06:55:29;11.40;99.90
5061;DHT22;2549;52.128;21.068;2022-11-06T06:58:00;11.40;99.90
5061;DHT22;2549;52.128;21.068;2022-11-06T07:00:27;11.30;99.90
5061;DHT22;2549;52.128;21.068;2022-11-06T07:02:54;11.40;99.90
5061;DHT22;2549;52.128;21.068;2022-11-06T07:05:21;11.40;99.90
5061;DHT22;2549;52.128;21.068;2022-11-06T07:07:48;11.40;99.90
5061;DHT22;2549;52.128;21.068;2022-11-06T07:10:16;11.40;99.90
5061;DHT22;2549;52.128;21.068;2022-11-06T07:12:43;11.40;99.90
5061;DHT22;2549;52.128;21.068;2022-11-06T07:15:10;11.40;99.90
5061;DHT22;2549;52.128;21.068;2022-11-06T07:17:37;11.40;99.90
5061;DHT22;2549;52.128;21.068;2022-11-06T07:20:05;11.40;99.90
5061;DHT22;2549;52.128;21.068;2022-11-06T07:22:32;11.40;99.90
5061;DHT22;2549;52.128;21.068;2022-11-06T07:25:04;11.40;99.90
5061;DHT22;2549;52.128;21.068;2022-11-06T07:27:31;11.40;99.90
5061;DHT22;2549;52.128;21.068;2022-11-06T07:29:58;11.40;99.90
5061;DHT22;2549;52.128;21.068;2022-11-06T07:32:26;11.40;99.90
5061;DHT22;2549;52.128;21.068;2022-11-06T07:34:53;11.40;99.90
5061;DHT22;2549;52.128;21.068;2022-11-06T07:37:20;11.40;99.90
5061;DHT22;2549;52.128;21.068;2022-11-06T07:39:47;11.40;99.90
5061;DHT22;2549;52.128;21.068;2022-11-06T07:42:14;11.40;99.90
5061;DHT22;2549;52.128;21.068;2022-11-06T07:44:41;11.40;99.90
5061;DHT22;2549;52.128;21.068;2022-11-06T07:47:08;11.40;99.90
5061;DHT22;2549;52.128;21.068;2022-11-06T07:49:34;11.40;99.90
5061;DHT22;2549;52.128;21.068;2022-11-06T07:52:04;11.40;99.90
5061;DHT22;2549;52.128;21.068;2022-11-06T07:54:30;11.50;99.90
5061;DHT22;2549;52.128;21.068;2022-11-06T07:56:57;11.50;99.90
5061;DHT22;2549;52.128;21.068;2022-11-06T07:59:24;11.50;99.90
5061;DHT22;2549;52.128;21.068;2022-11-06T08:01:51;11.50;99.90
5061;DHT22;2549;52.128;21.068;2022-11-06T08:04:18;11.50;99.90
5061;DHT22;2549;52.128;21.068;2022-11-06T08:06:45;11.50;99.90
5061;DHT22;2549;52.128;21.068;2022-11-06T08:09:12;11.60;99.90
5061;DHT22;2549;52.128;21.068;2022-11-06T08:11:38;11.50;99.90
5061;DHT22;2549;52.128;21.068;2022-11-06T08:14:05;11.50;99.90
5061;DHT22;2549;52.128;21.068;2022-11-06T08:16:32;11.50;99.90
5061;DHT22;2549;52.128;21.068;2022-11-06T08:18:59;11.50;99.90
5061;DHT22;2549;52.128;21.068;2022-11-06T08:21:26;11.60;99.90
5061;DHT22;2549;52.128;21.068;2022-11-06T08:23:54;11.70;99.90
5061;DHT22;2549;52.128;21.068;2022-11-06T08:26:24;11.70;99.90
5061;DHT22;2549;52.128;21.068;2022-11-06T08:28:51;11.70;99.90
5061;DHT22;2549;52.128;21.068;2022-11-06T08:31:18;11.70;99.90
5061;DHT22;2549;52.128;21.068;2022-11-06T08:33:46;11.70;99.90
5061;DHT22;2549;52.128;21.068;2022-11-06T08:36:13;11.70;99.90
5061;DHT22;2549;52.128;21.068;2022-11-06T08:38:40;11.70;99.90
5061;DHT22;2549;52.128;21.068;2022-11-06T08:41:11;11.70;99.90
5061;DHT22;2549;52.128;21.068;2022-11-06T08:43:39;11.70;99.90
5061;DHT22;2549;52.128;21.068;2022-11-06T08:46:08;11.70;99.90
5061;DHT22;2549;52.128;21.068;2022-11-06T08:48:37;11.70;99.90
5061;DHT22;2549;52.128;21.068;2022-11-06T08:51:04;11.70;99.90
5061;DHT22;2549;52.128;21.068;2022-11-06T08:53:31;11.50;99.90
5061;DHT22;2549;52.128;21.068;2022-11-06T08:56:01;11.50;99.90
5061;DHT22;2549;52.128;21.068;2022-11-06T08:58:29;11.50;99.90
5061;DHT22;2549;52.128;21.068;2022-11-06T09:00:55;11.50;99.90
5061;DHT22;2549;52.128;21.068;2022-11-06T09:03:22;11.50;99.90
5061;DHT22;2549;52.128;21.068;2022-11-06T09:05:49;11.50;99.90
5061;DHT22;2549;52.128;21.068;2022-11-06T09:08:16;11.60;99.90
5061;DHT22;2549;52.128;21.068;2022-11-06T09:10:44;11.60;99.90
5061;DHT22;2549;52.128;21.068;2022-11-06T09:13:11;11.60;99.90
5061;DHT22;2549;52.128;21.068;2022-11-06T09:15:39;11.70;99.90
5061;DHT22;2549;52.128;21.068;2022-11-06T09:18:06;11.70;99.90
5061;DHT22;2549;52.128;21.068;2022-11-06T09:20:34;11.80;99.90
5061;DHT22;2549;52.128;21.068;2022-11-06T09:23:03;11.90;99.90
5061;DHT22;2549;52.128;21.068;2022-11-06T09:25:30;11.90;99.90
5061;DHT22;2549;52.128;21.068;2022-11-06T09:27:58;12.00;99.90
5061;DHT22;2549;52.128;21.068;2022-11-06T09:30:28;12.00;99.90
5061;DHT22;2549;52.128;21.068;2022-11-06T09:32:58;12.00;99.90
5061;DHT22;2549;52.128;21.068;2022-11-06T09:35:27;11.90;99.90
5061;DHT22;2549;52.128;21.068;2022-11-06T09:38:05;11.90;99.90
5061;DHT22;2549;52.128;21.068;2022-11-06T09:40:44;11.90;99.90
5061;DHT22;2549;52.128;21.068;2022-11-06T09:46:34;12.00;99.90
5061;DHT22;2549;52.128;21.068;2022-11-06T09:52:09;12.10;99.90
5061;DHT22;2549;52.128;21.068;2022-11-06T09:54:52;12.10;99.90
5061;DHT22;2549;52.128;21.068;2022-11-06T10:00:07;12.10;99.90
5061;DHT22;2549;52.128;21.068;2022-11-06T10:05:37;12.20;99.90
5061;DHT22;2549;52.128;21.068;2022-11-06T10:08:15;12.20;99.90
5061;DHT22;2549;52.128;21.068;2022-11-06T10:16:13;12.30;99.90
5061;DHT22;2549;52.128;21.068;2022-11-06T10:23:51;12.20;99.90
5061;DHT22;2549;52.128;21.068;2022-11-06T10:26:35;12.20;99.90
5061;DHT22;2549;52.128;21.068;2022-11-06T10:34:59;12.00;99.90
5061;DHT22;2549;52.128;21.068;2022-11-06T10:37:31;12.10;99.90
5061;DHT22;2549;52.128;21.068;2022-11-06T10:40:04;12.10;99.90
5061;DHT22;2549;52.128;21.068;2022-11-06T10:42:36;12.10;99.90
5061;DHT22;2549;52.128;21.068;2022-11-06T10:45:12;12.20;99.90
5061;DHT22;2549;52.128;21.068;2022-11-06T10:50:15;12.10;99.90
5061;DHT22;2549;52.128;21.068;2022-11-06T10:58:14;12.20;99.90
5061;DHT22;2549;52.128;21.068;2022-11-06T11:00:46;12.20;99.90
5061;DHT22;2549;52.128;21.068;2022-11-06T11:03:21;12.20;99.90
5061;DHT22;2549;52.128;21.068;2022-11-06T11:05:49;12.30;99.90
5061;DHT22;2549;52.128;21.068;2022-11-06T11:08:36;12.30;99.90
5061;DHT22;2549;52.128;21.068;2022-11-06T11:16:41;12.50;99.90
5061;DHT22;2549;52.128;21.068;2022-11-06T11:19:39;12.50;99.90
5061;DHT22;2549;52.128;21.068;2022-11-06T11:27:31;12.70;99.90
5061;DHT22;2549;52.128;21.068;2022-11-06T11:29:58;12.70;99.90
5061;DHT22;2549;52.128;21.068;2022-11-06T11:32:28;12.70;99.90
5061;DHT22;2549;52.128;21.068;2022-11-06T11:34:56;12.60;99.90
5061;DHT22;2549;52.128;21.068;2022-11-06T11:37:31;12.60;99.90
5061;DHT22;2549;52.128;21.068;2022-11-06T11:40:19;12.60;99.90
5061;DHT22;2549;52.128;21.068;2022-11-06T11:42:49;12.60;99.90
5061;DHT22;2549;52.128;21.068;2022-11-06T11:45:18;12.50;99.90
5061;DHT22;2549;52.128;21.068;2022-11-06T11:47:48;12.50;99.90
5061;DHT22;2549;52.128;21.068;2022-11-06T11:52:46;12.50;99.90
5061;DHT22;2549;52.128;21.068;2022-11-06T11:55:15;12.50;99.90
5061;DHT22;2549;52.128;21.068;2022-11-06T11:57:44;12.50;99.90
5061;DHT22;2549;52.128;21.068;2022-11-06T12:00:20;12.50;99.90
5061;DHT22;2549;52.128;21.068;2022-11-06T12:05:43;12.60;99.90
5061;DHT22;2549;52.128;21.068;2022-11-06T12:08:20;12.60;99.90
5061;DHT22;2549;52.128;21.068;2022-11-06T12:10:48;12.60;99.90
5061;DHT22;2549;52.128;21.068;2022-11-06T12:13:19;12.60;99.90
5061;DHT22;2549;52.128;21.068;2022-11-06T12:16:05;12.60;99.90
5061;DHT22;2549;52.128;21.068;2022-11-06T12:18:44;12.60;99.90
5061;DHT22;2549;52.128;21.068;2022-11-06T12:29:57;12.70;99.90
5061;DHT22;2549;52.128;21.068;2022-11-06T12:32:42;12.70;99.90
5061;DHT22;2549;52.128;21.068;2022-11-06T12:35:29;12.70;99.90
5061;DHT22;2549;52.128;21.068;2022-11-06T12:40:42;12.80;99.90
5061;DHT22;2549;52.128;21.068;2022-11-06T12:43:48;12.80;99.90
5061;DHT22;2549;52.128;21.068;2022-11-06T13:00:20;12.80;99.90
5061;DHT22;2549;52.128;21.068;2022-11-06T13:06:39;12.90;99.90
5061;DHT22;2549;52.128;21.068;2022-11-06T13:09:02;12.90;99.90
5061;DHT22;2549;52.128;21.068;2022-11-06T13:14:27;12.90;99.90
5061;DHT22;2549;52.128;21.068;2022-11-06T13:17:21;12.90;99.90
5061;DHT22;2549;52.128;21.068;2022-11-06T13:25:23;12.90;99.90
5061;DHT22;2549;52.128;21.068;2022-11-06T13:30:42;12.90;99.90
5061;DHT22;2549;52.128;21.068;2022-11-06T13:35:41;12.90;99.90
5061;DHT22;2549;52.128;21.068;2022-11-06T13:38:15;12.90;99.90
5061;DHT22;2549;52.128;21.068;2022-11-06T13:40:46;12.90;99.90
5061;DHT22;2549;52.128;21.068;2022-11-06T13:43:22;12.90;99.90
5061;DHT22;2549;52.128;21.068;2022-11-06T13:49:31;12.90;99.90
5061;DHT22;2549;52.128;21.068;2022-11-06T13:55:22;12.90;99.90
5061;DHT22;2549;52.128;21.068;2022-11-06T14:03:52;12.80;99.90
5061;DHT22;2549;52.128;21.068;2022-11-06T14:06:28;12.80;99.90
5061;DHT22;2549;52.128;21.068;2022-11-06T14:08:59;12.80;99.90
5061;DHT22;2549;52.128;21.068;2022-11-06T14:11:29;12.80;99.90
5061;DHT22;2549;52.128;21.068;2022-11-06T14:14:03;12.80;99.90
5061;DHT22;2549;52.128;21.068;2022-11-06T14:19:23;12.80;99.90
5061;DHT22;2549;52.128;21.068;2022-11-06T14:22:28;12.70;99.90
5061;DHT22;2549;52.128;21.068;2022-11-06T14:24:57;12.70;99.90
5061;DHT22;2549;52.128;21.068;2022-11-06T14:32:42;12.70;99.90
5061;DHT22;2549;52.128;21.068;2022-11-06T14:40:55;12.60;99.90
5061;DHT22;2549;52.128;21.068;2022-11-06T14:43:31;12.50;99.90
5061;DHT22;2549;52.128;21.068;2022-11-06T14:46:13;12.50;99.90
5061;DHT22;2549;52.128;21.068;2022-11-06T14:48:44;12.50;99.90
5061;DHT22;2549;52.128;21.068;2022-11-06T14:51:12;12.40;99.90
5061;DHT22;2549;52.128;21.068;2022-11-06T14:53:51;12.40;99.90
5061;DHT22;2549;52.128;21.068;2022-11-06T14:56:29;12.40;99.90
5061;DHT22;2549;52.128;21.068;2022-11-06T14:59:04;12.40;99.90
5061;DHT22;2549;52.128;21.068;2022-11-06T15:01:34;12.40;99.90
5061;DHT22;2549;52.128;21.068;2022-11-06T15:04:17;12.30;99.90
5061;DHT22;2549;52.128;21.068;2022-11-06T15:06:49;12.30;99.90
5061;DHT22;2549;52.128;21.068;2022-11-06T15:11:58;12.20;99.90
5061;DHT22;2549;52.128;21.068;2022-11-06T15:17:02;12.10;99.90
5061;DHT22;2549;52.128;21.068;2022-11-06T15:19:47;12.10;99.90
5061;DHT22;2549;52.128;21.068;2022-11-06T15:22:37;12.10;99.90
5061;DHT22;2549;52.128;21.068;2022-11-06T15:25:18;12.00;99.90
5061;DHT22;2549;52.128;21.068;2022-11-06T15:28:13;11.90;99.90
5061;DHT22;2549;52.128;21.068;2022-11-06T15:30:49;11.90;99.90
5061;DHT22;2549;52.128;21.068;2022-11-06T15:33:38;11.80;99.90
5061;DHT22;2549;52.128;21.068;2022-11-06T15:36:11;11.80;99.90
5061;DHT22;2549;52.128;21.068;2022-11-06T15:38:40;11.70;99.90
5061;DHT22;2549;52.128;21.068;2022-11-06T15:41:15;11.70;99.90
5061;DHT22;2549;52.128;21.068;2022-11-06T15:43:45;11.70;99.90
5061;DHT22;2549;52.128;21.068;2022-11-06T15:48:45;11.70;99.90
5061;DHT22;2549;52.128;21.068;2022-11-06T15:51:26;11.70;99.90
5061;DHT22;2549;52.128;21.068;2022-11-06T15:53:54;11.60;99.90
5061;DHT22;2549;52.128;21.068;2022-11-06T15:56:29;11.60;99.90
5061;DHT22;2549;52.128;21.068;2022-11-06T15:59:09;11.60;99.90
5061;DHT22;2549;52.128;21.068;2022-11-06T16:01:37;11.60;99.90
5061;DHT22;2549;52.128;21.068;2022-11-06T16:04:10;11.60;99.90
5061;DHT22;2549;52.128;21.068;2022-11-06T16:06:42;11.60;99.90
5061;DHT22;2549;52.128;21.068;2022-11-06T16:09:18;11.60;99.90
5061;DHT22;2549;52.128;21.068;2022-11-06T16:11:47;11.50;99.90
5061;DHT22;2549;52.128;21.068;2022-11-06T16:14:15;11.50;99.90
5061;DHT22;2549;52.128;21.068;2022-11-06T16:16:50;11.50;99.90
5061;DHT22;2549;52.128;21.068;2022-11-06T16:19:33;11.50;99.90
5061;DHT22;2549;52.128;21.068;2022-11-06T16:22:10;11.50;99.90
5061;DHT22;2549;52.128;21.068;2022-11-06T16:24:52;11.50;99.90
5061;DHT22;2549;52.128;21.068;2022-11-06T16:27:21;11.50;99.90
5061;DHT22;2549;52.128;21.068;2022-11-06T16:29:57;11.50;99.90
5061;DHT22;2549;52.128;21.068;2022-11-06T16:32:26;11.50;99.90
5061;DHT22;2549;52.128;21.068;2022-11-06T16:34:54;11.50;99.90
5061;DHT22;2549;52.128;21.068;2022-11-06T16:39:57;11.50;99.90
5061;DHT22;2549;52.128;21.068;2022-11-06T16:42:31;11.50;99.90
5061;DHT22;2549;52.128;21.068;2022-11-06T16:45:28;11.50;99.90
5061;DHT22;2549;52.128;21.068;2022-11-06T16:50:49;11.50;99.90
5061;DHT22;2549;52.128;21.068;2022-11-06T16:53:25;11.40;99.90
5061;DHT22;2549;52.128;21.068;2022-11-06T16:55:54;11.40;99.90
5061;DHT22;2549;52.128;21.068;2022-11-06T16:58:21;11.40;99.90
5061;DHT22;2549;52.128;21.068;2022-11-06T17:01:15;11.30;99.90
5061;DHT22;2549;52.128;21.068;2022-11-06T17:03:59;11.30;99.90
5061;DHT22;2549;52.128;21.068;2022-11-06T17:06:32;11.30;99.90
5061;DHT22;2549;52.128;21.068;2022-11-06T17:09:06;11.30;99.90
5061;DHT22;2549;52.128;21.068;2022-11-06T17:11:35;11.30;99.90
5061;DHT22;2549;52.128;21.068;2022-11-06T17:14:22;11.30;99.90
5061;DHT22;2549;52.128;21.068;2022-11-06T17:16:54;11.20;99.90
5061;DHT22;2549;52.128;21.068;2022-11-06T17:19:22;11.20;99.90
5061;DHT22;2549;52.128;21.068;2022-11-06T17:21:50;11.20;99.90
5061;DHT22;2549;52.128;21.068;2022-11-06T17:24:17;11.20;99.90
5061;DHT22;2549;52.128;21.068;2022-11-06T17:27:05;11.20;99.90
5061;DHT22;2549;52.128;21.068;2022-11-06T17:29:33;11.20;99.90
5061;DHT22;2549;52.128;21.068;2022-11-06T17:32:02;11.20;99.90
5061;DHT22;2549;52.128;21.068;2022-11-06T17:34:29;11.20;99.90
5061;DHT22;2549;52.128;21.068;2022-11-06T17:36:55;11.20;99.90
5061;DHT22;2549;52.128;21.068;2022-11-06T17:39:22;11.20;99.90
5061;DHT22;2549;52.128;21.068;2022-11-06T17:41:49;11.10;99.90
5061;DHT22;2549;52.128;21.068;2022-11-06T17:44:16;11.10;99.90
5061;DHT22;2549;52.128;21.068;2022-11-06T17:46:45;11.10;99.90
5061;DHT22;2549;52.128;21.068;2022-11-06T17:49:13;11.10;99.90
5061;DHT22;2549;52.128;21.068;2022-11-06T17:51:44;11.10;99.90
5061;DHT22;2549;52.128;21.068;2022-11-06T17:54:30;11.10;99.90
5061;DHT22;2549;52.128;21.068;2022-11-06T17:57:05;11.00;99.90
5061;DHT22;2549;52.128;21.068;2022-11-06T17:59:33;10.90;99.90
5061;DHT22;2549;52.128;21.068;2022-11-06T18:02:00;10.90;99.90
5061;DHT22;2549;52.128;21.068;2022-11-06T18:04:30;10.90;99.90
5061;DHT22;2549;52.128;21.068;2022-11-06T18:06:57;10.90;99.90
5061;DHT22;2549;52.128;21.068;2022-11-06T18:09:23;10.80;99.90
5061;DHT22;2549;52.128;21.068;2022-11-06T18:11:52;10.80;99.90
5061;DHT22;2549;52.128;21.068;2022-11-06T18:14:20;10.80;99.90
5061;DHT22;2549;52.128;21.068;2022-11-06T18:16:47;10.80;99.90
5061;DHT22;2549;52.128;21.068;2022-11-06T18:19:17;10.80;99.90
5061;DHT22;2549;52.128;21.068;2022-11-06T18:21:46;10.80;99.90
5061;DHT22;2549;52.128;21.068;2022-11-06T18:24:13;10.70;99.90
5061;DHT22;2549;52.128;21.068;2022-11-06T18:26:40;10.70;99.90
5061;DHT22;2549;52.128;21.068;2022-11-06T18:29:07;10.70;99.90
5061;DHT22;2549;52.128;21.068;2022-11-06T18:31:36;10.70;99.90
5061;DHT22;2549;52.128;21.068;2022-11-06T18:34:03;10.80;99.90
5061;DHT22;2549;52.128;21.068;2022-11-06T18:36:31;10.80;99.90
5061;DHT22;2549;52.128;21.068;2022-11-06T18:38:58;10.70;99.90
5061;DHT22;2549;52.128;21.068;2022-11-06T18:41:25;10.70;99.90
5061;DHT22;2549;52.128;21.068;2022-11-06T18:43:58;10.70;99.90
5061;DHT22;2549;52.128;21.068;2022-11-06T18:46:26;10.60;99.90
5061;DHT22;2549;52.128;21.068;2022-11-06T18:48:57;10.60;99.90
5061;DHT22;2549;52.128;21.068;2022-11-06T18:51:27;10.50;99.90
5061;DHT22;2549;52.128;21.068;2022-11-06T18:54:03;10.50;99.90
5061;DHT22;2549;52.128;21.068;2022-11-06T18:56:31;10.50;99.90
5061;DHT22;2549;52.128;21.068;2022-11-06T18:58:59;10.50;99.90
5061;DHT22;2549;52.128;21.068;2022-11-06T19:01:26;10.40;99.90
5061;DHT22;2549;52.128;21.068;2022-11-06T19:03:54;10.40;99.90
5061;DHT22;2549;52.128;21.068;2022-11-06T19:06:21;10.40;99.90
5061;DHT22;2549;52.128;21.068;2022-11-06T19:08:47;10.40;99.90
5061;DHT22;2549;52.128;21.068;2022-11-06T19:11:16;10.40;99.90